Quinebaug River @ Quinebaug, Ct

Quinebaug River at Quinebaug
 Total Drainage Area: 155 sq. miles 
 Drainage Area Controlled by Corps Dams: ?? sq. miles (??%) 
 Warning Flow/Stage: 2,570 cfs / 6.0 feet 
 Flood Flow/Stage: ?? cfs / ?? feet 
Date Time
(Eastern)
Stage
(ft)
Flow
(cfs)
CSM
(cfs / sq. mi.)
Jun-25 02:00 am 3.20 319 2.1
Jun-25 01:00 am 3.21 324 2.1
Jun-25 12:00 am 3.21 324 2.1
Jun-24 11:00 pm 3.21 324 2.1
Jun-24 10:00 pm 3.20 319 2.1
Jun-24 09:00 pm 3.20 319 2.1
Jun-24 08:00 pm 3.19 314 2.0
Jun-24 07:00 pm 3.18 309 2.0
Jun-24 06:00 pm 3.16 299 1.9
Jun-24 05:00 pm 3.20 319 2.1
Jun-24 04:00 pm 3.30 374 2.4
Jun-24 03:00 pm 3.22 330 2.1
Jun-24 02:00 pm 3.20 319 2.1
Jun-24 01:00 pm 3.20 319 2.1
Jun-24 12:00 pm 3.22 330 2.1
Jun-24 11:00 am 3.22 330 2.1
Jun-24 10:00 am 3.22 330 2.1
Jun-24 09:00 am 3.23 335 2.2
Jun-24 08:00 am 3.23 335 2.2
Jun-24 07:00 am 3.24 340 2.2
Jun-24 06:00 am 3.24 340 2.2
Jun-24 05:00 am 3.24 340 2.2
Jun-24 04:00 am 3.24 340 2.2
Jun-24 03:00 am 3.23 335 2.2
Jun-24 02:00 am 3.23 335 2.2
Report Generated June 25, 2024 02:12 am